sensor_id;sensor_type;location;lat;lon;timestamp;temperature;humidity
5675;DHT22;2860;54.284;10.158;2023-02-26T00:01:33;0.20;99.90
5675;DHT22;2860;54.284;10.158;2023-02-26T00:04:00;0.10;99.90
5675;DHT22;2860;54.284;10.158;2023-02-26T00:06:27;0.10;99.90
5675;DHT22;2860;54.284;10.158;2023-02-26T00:08:53;0.10;99.90
5675;DHT22;2860;54.284;10.158;2023-02-26T00:11:19;0.10;99.90
5675;DHT22;2860;54.284;10.158;2023-02-26T00:13:45;0.10;99.90
5675;DHT22;2860;54.284;10.158;2023-02-26T00:16:28;0.10;99.90
5675;DHT22;2860;54.284;10.158;2023-02-26T00:18:55;0.10;99.90
5675;DHT22;2860;54.284;10.158;2023-02-26T00:21:22;0.10;99.90
5675;DHT22;2860;54.284;10.158;2023-02-26T00:23:48;0.10;99.90
5675;DHT22;2860;54.284;10.158;2023-02-26T00:26:14;0.10;99.90
5675;DHT22;2860;54.284;10.158;2023-02-26T00:28:40;0.00;99.90
5675;DHT22;2860;54.284;10.158;2023-02-26T00:31:06;0.00;99.90
5675;DHT22;2860;54.284;10.158;2023-02-26T00:33:32;-0.10;99.90
5675;DHT22;2860;54.284;10.158;2023-02-26T00:36:12;-0.20;99.90
5675;DHT22;2860;54.284;10.158;2023-02-26T00:38:42;-0.10;99.90
5675;DHT22;2860;54.284;10.158;2023-02-26T00:41:09;-0.20;99.90
5675;DHT22;2860;54.284;10.158;2023-02-26T00:43:35;-0.10;99.90
5675;DHT22;2860;54.284;10.158;2023-02-26T00:48:59;-0.10;99.90
5675;DHT22;2860;54.284;10.158;2023-02-26T00:51:36;-0.20;99.90
5675;DHT22;2860;54.284;10.158;2023-02-26T00:54:19;-0.20;99.90
5675;DHT22;2860;54.284;10.158;2023-02-26T00:56:46;-0.20;99.90
5675;DHT22;2860;54.284;10.158;2023-02-26T00:59:12;-0.20;99.90
5675;DHT22;2860;54.284;10.158;2023-02-26T01:01:37;-0.30;99.90
5675;DHT22;2860;54.284;10.158;2023-02-26T01:04:03;-0.30;99.90
5675;DHT22;2860;54.284;10.158;2023-02-26T01:06:32;-0.30;99.90
5675;DHT22;2860;54.284;10.158;2023-02-26T01:09:04;-0.30;99.90
5675;DHT22;2860;54.284;10.158;2023-02-26T01:11:34;-0.30;99.90
5675;DHT22;2860;54.284;10.158;2023-02-26T01:14:00;-0.30;99.90
5675;DHT22;2860;54.284;10.158;2023-02-26T01:16:27;-0.40;99.90
5675;DHT22;2860;54.284;10.158;2023-02-26T01:19:02;-0.40;99.90
5675;DHT22;2860;54.284;10.158;2023-02-26T01:21:35;-0.40;99.90
5675;DHT22;2860;54.284;10.158;2023-02-26T01:24:05;-0.40;99.90
5675;DHT22;2860;54.284;10.158;2023-02-26T01:26:31;-0.50;99.90
5675;DHT22;2860;54.284;10.158;2023-02-26T01:28:56;-0.50;99.90
5675;DHT22;2860;54.284;10.158;2023-02-26T01:33:52;-0.50;99.90
5675;DHT22;2860;54.284;10.158;2023-02-26T01:36:22;-0.50;99.90
5675;DHT22;2860;54.284;10.158;2023-02-26T01:39:15;-0.50;99.90
5675;DHT22;2860;54.284;10.158;2023-02-26T01:41:48;-0.50;99.90
5675;DHT22;2860;54.284;10.158;2023-02-26T01:49:25;-0.50;99.90
5675;DHT22;2860;54.284;10.158;2023-02-26T01:51:56;-0.60;99.90
5675;DHT22;2860;54.284;10.158;2023-02-26T01:54:40;-0.60;99.90
5675;DHT22;2860;54.284;10.158;2023-02-26T01:57:10;-0.70;99.90
5675;DHT22;2860;54.284;10.158;2023-02-26T01:59:41;-0.70;99.90
5675;DHT22;2860;54.284;10.158;2023-02-26T02:02:09;-0.70;99.90
5675;DHT22;2860;54.284;10.158;2023-02-26T02:04:36;-0.70;99.90
5675;DHT22;2860;54.284;10.158;2023-02-26T02:07:04;-0.80;99.90
5675;DHT22;2860;54.284;10.158;2023-02-26T02:09:30;-0.80;99.90
5675;DHT22;2860;54.284;10.158;2023-02-26T02:12:22;-0.80;99.90
5675;DHT22;2860;54.284;10.158;2023-02-26T02:22:59;-0.80;99.90
5675;DHT22;2860;54.284;10.158;2023-02-26T02:25:56;-0.80;99.90
5675;DHT22;2860;54.284;10.158;2023-02-26T02:33:46;-0.80;99.90
5675;DHT22;2860;54.284;10.158;2023-02-26T02:36:33;-0.80;99.90
5675;DHT22;2860;54.284;10.158;2023-02-26T02:39:06;-0.90;99.90
5675;DHT22;2860;54.284;10.158;2023-02-26T02:41:38;-0.80;99.90
5675;DHT22;2860;54.284;10.158;2023-02-26T02:44:11;-0.80;99.90
5675;DHT22;2860;54.284;10.158;2023-02-26T02:46:39;-0.80;99.90
5675;DHT22;2860;54.284;10.158;2023-02-26T02:49:34;-0.70;99.90
5675;DHT22;2860;54.284;10.158;2023-02-26T02:52:07;-0.80;99.90
5675;DHT22;2860;54.284;10.158;2023-02-26T02:54:57;-0.80;99.90
5675;DHT22;2860;54.284;10.158;2023-02-26T02:57:33;-0.90;99.90
5675;DHT22;2860;54.284;10.158;2023-02-26T03:00:04;-0.80;99.90
5675;DHT22;2860;54.284;10.158;2023-02-26T03:02:54;-0.80;99.90
5675;DHT22;2860;54.284;10.158;2023-02-26T03:05:21;-0.80;99.90
5675;DHT22;2860;54.284;10.158;2023-02-26T03:07:54;-0.80;99.90
5675;DHT22;2860;54.284;10.158;2023-02-26T03:10:21;-0.80;99.90
5675;DHT22;2860;54.284;10.158;2023-02-26T03:12:46;-0.80;99.90
5675;DHT22;2860;54.284;10.158;2023-02-26T03:15:13;-0.70;99.90
5675;DHT22;2860;54.284;10.158;2023-02-26T03:17:53;-0.70;99.90
5675;DHT22;2860;54.284;10.158;2023-02-26T03:20:29;-0.70;99.90
5675;DHT22;2860;54.284;10.158;2023-02-26T03:23:08;-0.80;99.90
5675;DHT22;2860;54.284;10.158;2023-02-26T03:25:55;-0.80;99.90
5675;DHT22;2860;54.284;10.158;2023-02-26T03:31:16;-0.90;99.90
5675;DHT22;2860;54.284;10.158;2023-02-26T03:36:25;-1.00;99.90
5675;DHT22;2860;54.284;10.158;2023-02-26T03:41:43;-1.10;99.90
5675;DHT22;2860;54.284;10.158;2023-02-26T03:44:17;-1.10;99.90
5675;DHT22;2860;54.284;10.158;2023-02-26T03:46:48;-1.10;99.90
5675;DHT22;2860;54.284;10.158;2023-02-26T03:49:27;-1.10;99.90
5675;DHT22;2860;54.284;10.158;2023-02-26T03:51:57;-1.00;99.90
5675;DHT22;2860;54.284;10.158;2023-02-26T03:54:28;-1.00;99.90
5675;DHT22;2860;54.284;10.158;2023-02-26T03:56:55;-0.90;99.90
5675;DHT22;2860;54.284;10.158;2023-02-26T03:59:20;-0.90;99.90
5675;DHT22;2860;54.284;10.158;2023-02-26T04:02:02;-0.80;99.90
5675;DHT22;2860;54.284;10.158;2023-02-26T04:04:47;-0.80;99.90
5675;DHT22;2860;54.284;10.158;2023-02-26T04:07:15;-0.80;99.90
5675;DHT22;2860;54.284;10.158;2023-02-26T04:09:43;-0.80;99.90
5675;DHT22;2860;54.284;10.158;2023-02-26T04:12:10;-0.90;99.90
5675;DHT22;2860;54.284;10.158;2023-02-26T04:14:36;-0.90;99.90
5675;DHT22;2860;54.284;10.158;2023-02-26T04:17:02;-0.90;99.90
5675;DHT22;2860;54.284;10.158;2023-02-26T04:19:27;-0.90;99.90
5675;DHT22;2860;54.284;10.158;2023-02-26T04:21:53;-0.90;99.90
5675;DHT22;2860;54.284;10.158;2023-02-26T04:24:19;-0.80;99.90
5675;DHT22;2860;54.284;10.158;2023-02-26T04:26:45;-0.70;99.90
5675;DHT22;2860;54.284;10.158;2023-02-26T04:29:10;-0.70;99.90
5675;DHT22;2860;54.284;10.158;2023-02-26T04:31:36;-0.70;99.90
5675;DHT22;2860;54.284;10.158;2023-02-26T04:34:02;-0.70;99.90
5675;DHT22;2860;54.284;10.158;2023-02-26T04:36:28;-0.70;99.90
5675;DHT22;2860;54.284;10.158;2023-02-26T04:38:53;-0.70;99.90
5675;DHT22;2860;54.284;10.158;2023-02-26T04:41:19;-0.60;99.90
5675;DHT22;2860;54.284;10.158;2023-02-26T04:43:44;-0.60;99.90
5675;DHT22;2860;54.284;10.158;2023-02-26T04:46:10;-0.70;99.90
5675;DHT22;2860;54.284;10.158;2023-02-26T04:48:35;-0.60;99.90
5675;DHT22;2860;54.284;10.158;2023-02-26T04:51:01;-0.60;99.90
5675;DHT22;2860;54.284;10.158;2023-02-26T04:53:26;-0.60;99.90
5675;DHT22;2860;54.284;10.158;2023-02-26T04:55:52;-0.60;99.90
5675;DHT22;2860;54.284;10.158;2023-02-26T04:58:17;-0.70;99.90
5675;DHT22;2860;54.284;10.158;2023-02-26T05:00:47;-0.70;99.90
5675;DHT22;2860;54.284;10.158;2023-02-26T05:03:13;-0.60;99.90
5675;DHT22;2860;54.284;10.158;2023-02-26T05:05:39;-0.60;99.90
5675;DHT22;2860;54.284;10.158;2023-02-26T05:08:04;-0.60;99.90
5675;DHT22;2860;54.284;10.158;2023-02-26T05:10:30;-0.50;99.90
5675;DHT22;2860;54.284;10.158;2023-02-26T05:12:56;-0.50;99.90
5675;DHT22;2860;54.284;10.158;2023-02-26T05:15:21;-0.50;99.90
5675;DHT22;2860;54.284;10.158;2023-02-26T05:17:47;-0.50;99.90
5675;DHT22;2860;54.284;10.158;2023-02-26T05:20:12;-0.40;99.90
5675;DHT22;2860;54.284;10.158;2023-02-26T05:22:39;-0.40;99.90
5675;DHT22;2860;54.284;10.158;2023-02-26T05:25:05;-0.40;99.90
5675;DHT22;2860;54.284;10.158;2023-02-26T05:27:31;-0.40;99.90
5675;DHT22;2860;54.284;10.158;2023-02-26T05:29:57;-0.40;99.90
5675;DHT22;2860;54.284;10.158;2023-02-26T05:32:22;-0.30;99.90
5675;DHT22;2860;54.284;10.158;2023-02-26T05:34:48;-0.30;99.90
5675;DHT22;2860;54.284;10.158;2023-02-26T05:37:13;-0.30;99.90
5675;DHT22;2860;54.284;10.158;2023-02-26T05:39:39;-0.30;99.90
5675;DHT22;2860;54.284;10.158;2023-02-26T05:42:06;-0.30;99.90
5675;DHT22;2860;54.284;10.158;2023-02-26T05:44:31;-0.20;99.90
5675;DHT22;2860;54.284;10.158;2023-02-26T05:46:57;-0.20;99.90
5675;DHT22;2860;54.284;10.158;2023-02-26T05:49:22;-0.20;99.90
5675;DHT22;2860;54.284;10.158;2023-02-26T05:51:48;-0.20;99.90
5675;DHT22;2860;54.284;10.158;2023-02-26T05:54:13;-0.10;99.90
5675;DHT22;2860;54.284;10.158;2023-02-26T05:56:39;-0.20;99.90
5675;DHT22;2860;54.284;10.158;2023-02-26T05:59:04;-0.10;99.90
5675;DHT22;2860;54.284;10.158;2023-02-26T06:01:30;-0.20;99.90
5675;DHT22;2860;54.284;10.158;2023-02-26T06:03:55;-0.30;99.90
5675;DHT22;2860;54.284;10.158;2023-02-26T06:06:21;-0.30;99.90
5675;DHT22;2860;54.284;10.158;2023-02-26T06:08:46;-0.30;99.90
5675;DHT22;2860;54.284;10.158;2023-02-26T06:11:12;-0.30;99.90
5675;DHT22;2860;54.284;10.158;2023-02-26T06:13:38;-0.20;99.90
5675;DHT22;2860;54.284;10.158;2023-02-26T06:16:04;-0.20;99.90
5675;DHT22;2860;54.284;10.158;2023-02-26T06:18:30;-0.10;99.90
5675;DHT22;2860;54.284;10.158;2023-02-26T06:20:58;-0.10;99.90
5675;DHT22;2860;54.284;10.158;2023-02-26T06:23:23;-0.10;99.90
5675;DHT22;2860;54.284;10.158;2023-02-26T06:25:50;-0.10;99.90
5675;DHT22;2860;54.284;10.158;2023-02-26T06:28:16;-0.10;99.90
5675;DHT22;2860;54.284;10.158;2023-02-26T06:30:42;-0.10;99.90
5675;DHT22;2860;54.284;10.158;2023-02-26T06:33:07;-0.20;99.90
5675;DHT22;2860;54.284;10.158;2023-02-26T06:35:33;-0.20;99.90
5675;DHT22;2860;54.284;10.158;2023-02-26T06:37:58;-0.20;99.90
5675;DHT22;2860;54.284;10.158;2023-02-26T06:40:24;-0.20;99.90
5675;DHT22;2860;54.284;10.158;2023-02-26T06:42:49;-0.10;99.90
5675;DHT22;2860;54.284;10.158;2023-02-26T06:45:15;-0.10;99.90
5675;DHT22;2860;54.284;10.158;2023-02-26T06:47:41;-0.10;99.90
5675;DHT22;2860;54.284;10.158;2023-02-26T06:50:07;-0.10;99.90
5675;DHT22;2860;54.284;10.158;2023-02-26T06:52:33;-0.10;99.90
5675;DHT22;2860;54.284;10.158;2023-02-26T06:54:58;-0.20;99.90
5675;DHT22;2860;54.284;10.158;2023-02-26T06:57:24;-0.10;99.90
5675;DHT22;2860;54.284;10.158;2023-02-26T06:59:49;-0.20;99.90
5675;DHT22;2860;54.284;10.158;2023-02-26T07:02:18;-0.20;99.90
5675;DHT22;2860;54.284;10.158;2023-02-26T07:04:43;-0.10;99.90
5675;DHT22;2860;54.284;10.158;2023-02-26T07:07:10;0.00;99.90
5675;DHT22;2860;54.284;10.158;2023-02-26T07:09:36;0.00;99.90
5675;DHT22;2860;54.284;10.158;2023-02-26T07:12:01;0.10;99.90
5675;DHT22;2860;54.284;10.158;2023-02-26T07:14:27;0.20;99.90
5675;DHT22;2860;54.284;10.158;2023-02-26T07:16:52;0.30;99.90
5675;DHT22;2860;54.284;10.158;2023-02-26T07:19:18;0.40;99.90
5675;DHT22;2860;54.284;10.158;2023-02-26T07:21:43;0.40;99.90
5675;DHT22;2860;54.284;10.158;2023-02-26T07:24:09;0.40;99.90
5675;DHT22;2860;54.284;10.158;2023-02-26T07:26:34;0.50;99.90
5675;DHT22;2860;54.284;10.158;2023-02-26T07:29:00;0.60;99.90
5675;DHT22;2860;54.284;10.158;2023-02-26T07:31:25;0.70;99.90
5675;DHT22;2860;54.284;10.158;2023-02-26T07:33:51;0.80;99.90
5675;DHT22;2860;54.284;10.158;2023-02-26T07:36:16;0.90;99.90
5675;DHT22;2860;54.284;10.158;2023-02-26T07:38:42;1.00;99.90
5675;DHT22;2860;54.284;10.158;2023-02-26T07:41:08;1.10;99.90
5675;DHT22;2860;54.284;10.158;2023-02-26T07:43:33;1.20;99.90
5675;DHT22;2860;54.284;10.158;2023-02-26T07:45:59;1.20;99.90
5675;DHT22;2860;54.284;10.158;2023-02-26T07:48:24;1.30;99.90
5675;DHT22;2860;54.284;10.158;2023-02-26T07:50:53;1.30;99.90
5675;DHT22;2860;54.284;10.158;2023-02-26T07:53:19;1.30;99.90
5675;DHT22;2860;54.284;10.158;2023-02-26T07:55:44;1.30;99.90
5675;DHT22;2860;54.284;10.158;2023-02-26T07:58:10;1.40;99.90
5675;DHT22;2860;54.284;10.158;2023-02-26T08:00:35;1.50;99.90
5675;DHT22;2860;54.284;10.158;2023-02-26T08:03:01;1.50;99.90
5675;DHT22;2860;54.284;10.158;2023-02-26T08:05:26;1.50;99.90
5675;DHT22;2860;54.284;10.158;2023-02-26T08:07:52;1.60;99.90
5675;DHT22;2860;54.284;10.158;2023-02-26T08:10:17;1.70;99.90
5675;DHT22;2860;54.284;10.158;2023-02-26T08:12:43;1.80;99.90
5675;DHT22;2860;54.284;10.158;2023-02-26T08:15:09;1.90;99.90
5675;DHT22;2860;54.284;10.158;2023-02-26T08:17:37;2.00;99.90
5675;DHT22;2860;54.284;10.158;2023-02-26T08:20:03;2.20;99.90
5675;DHT22;2860;54.284;10.158;2023-02-26T08:22:29;2.20;99.90
5675;DHT22;2860;54.284;10.158;2023-02-26T08:24:55;2.30;99.90
5675;DHT22;2860;54.284;10.158;2023-02-26T08:27:20;2.30;99.90
5675;DHT22;2860;54.284;10.158;2023-02-26T08:29:46;2.40;99.90
5675;DHT22;2860;54.284;10.158;2023-02-26T08:32:15;2.50;99.90
5675;DHT22;2860;54.284;10.158;2023-02-26T08:34:41;2.60;99.90
5675;DHT22;2860;54.284;10.158;2023-02-26T08:37:07;2.90;99.90
5675;DHT22;2860;54.284;10.158;2023-02-26T08:39:36;3.10;99.90
5675;DHT22;2860;54.284;10.158;2023-02-26T08:42:04;3.10;99.90
5675;DHT22;2860;54.284;10.158;2023-02-26T08:44:29;3.10;99.90
5675;DHT22;2860;54.284;10.158;2023-02-26T08:46:55;3.00;99.90
5675;DHT22;2860;54.284;10.158;2023-02-26T08:49:20;3.00;99.90
5675;DHT22;2860;54.284;10.158;2023-02-26T08:51:46;3.00;99.90
5675;DHT22;2860;54.284;10.158;2023-02-26T08:54:11;2.90;99.90
5675;DHT22;2860;54.284;10.158;2023-02-26T08:56:37;2.90;99.90
5675;DHT22;2860;54.284;10.158;2023-02-26T08:59:03;2.90;99.90
5675;DHT22;2860;54.284;10.158;2023-02-26T09:01:30;2.80;99.90
5675;DHT22;2860;54.284;10.158;2023-02-26T09:03:55;2.90;99.90
5675;DHT22;2860;54.284;10.158;2023-02-26T09:06:21;3.00;99.90
5675;DHT22;2860;54.284;10.158;2023-02-26T09:08:46;3.10;99.90
5675;DHT22;2860;54.284;10.158;2023-02-26T09:11:12;3.30;99.90
5675;DHT22;2860;54.284;10.158;2023-02-26T09:13:37;3.30;99.90
5675;DHT22;2860;54.284;10.158;2023-02-26T09:16:03;3.50;99.90
5675;DHT22;2860;54.284;10.158;2023-02-26T09:18:29;3.70;99.90
5675;DHT22;2860;54.284;10.158;2023-02-26T09:20:54;3.70;99.90
5675;DHT22;2860;54.284;10.158;2023-02-26T09:23:20;3.60;99.90
5675;DHT22;2860;54.284;10.158;2023-02-26T09:25:50;3.60;99.90
5675;DHT22;2860;54.284;10.158;2023-02-26T09:28:15;3.50;99.90
5675;DHT22;2860;54.284;10.158;2023-02-26T09:30:41;3.40;99.90
5675;DHT22;2860;54.284;10.158;2023-02-26T09:33:07;3.40;99.90
5675;DHT22;2860;54.284;10.158;2023-02-26T09:35:34;3.30;99.90
5675;DHT22;2860;54.284;10.158;2023-02-26T09:37:59;3.30;99.90
5675;DHT22;2860;54.284;10.158;2023-02-26T09:45:52;3.30;99.90
5675;DHT22;2860;54.284;10.158;2023-02-26T09:48:20;3.40;99.90
5675;DHT22;2860;54.284;10.158;2023-02-26T09:50:54;3.70;99.90
5675;DHT22;2860;54.284;10.158;2023-02-26T09:53:27;3.80;99.90
5675;DHT22;2860;54.284;10.158;2023-02-26T09:56:04;3.70;99.90
5675;DHT22;2860;54.284;10.158;2023-02-26T09:58:37;3.60;99.90
5675;DHT22;2860;54.284;10.158;2023-02-26T10:01:31;3.50;99.90
5675;DHT22;2860;54.284;10.158;2023-02-26T10:04:10;3.40;99.90
5675;DHT22;2860;54.284;10.158;2023-02-26T10:12:28;3.30;99.90
5675;DHT22;2860;54.284;10.158;2023-02-26T10:20:24;3.20;99.90
5675;DHT22;2860;54.284;10.158;2023-02-26T10:23:05;3.30;99.90
5675;DHT22;2860;54.284;10.158;2023-02-26T10:25:44;3.40;99.90
5675;DHT22;2860;54.284;10.158;2023-02-26T10:28:31;3.40;99.90
5675;DHT22;2860;54.284;10.158;2023-02-26T10:31:05;3.40;99.90
5675;DHT22;2860;54.284;10.158;2023-02-26T10:33:37;3.50;99.90
5675;DHT22;2860;54.284;10.158;2023-02-26T10:36:26;3.60;99.90
5675;DHT22;2860;54.284;10.158;2023-02-26T10:39:20;3.70;99.90
5675;DHT22;2860;54.284;10.158;2023-02-26T10:41:48;3.70;99.90
5675;DHT22;2860;54.284;10.158;2023-02-26T10:44:45;3.70;99.90
5675;DHT22;2860;54.284;10.158;2023-02-26T10:50:05;3.80;99.90
5675;DHT22;2860;54.284;10.158;2023-02-26T10:52:32;3.80;99.90
5675;DHT22;2860;54.284;10.158;2023-02-26T10:58:11;3.70;99.90
5675;DHT22;2860;54.284;10.158;2023-02-26T11:00:43;3.80;99.90
5675;DHT22;2860;54.284;10.158;2023-02-26T11:03:17;3.90;99.90
5675;DHT22;2860;54.284;10.158;2023-02-26T11:05:43;3.80;99.90
5675;DHT22;2860;54.284;10.158;2023-02-26T11:08:39;3.80;99.90
5675;DHT22;2860;54.284;10.158;2023-02-26T11:11:06;3.90;99.90
5675;DHT22;2860;54.284;10.158;2023-02-26T11:13:37;3.90;99.90
5675;DHT22;2860;54.284;10.158;2023-02-26T11:16:10;4.00;99.90
5675;DHT22;2860;54.284;10.158;2023-02-26T11:18:45;4.10;99.90
5675;DHT22;2860;54.284;10.158;2023-02-26T11:21:21;4.10;99.90
5675;DHT22;2860;54.284;10.158;2023-02-26T11:23:49;4.20;99.90
5675;DHT22;2860;54.284;10.158;2023-02-26T11:26:17;4.30;99.90
5675;DHT22;2860;54.284;10.158;2023-02-26T11:28:45;4.40;99.90
5675;DHT22;2860;54.284;10.158;2023-02-26T11:31:16;4.50;99.90
5675;DHT22;2860;54.284;10.158;2023-02-26T11:33:49;4.70;99.90
5675;DHT22;2860;54.284;10.158;2023-02-26T11:36:18;4.90;99.90
5675;DHT22;2860;54.284;10.158;2023-02-26T11:38:50;4.90;99.90
5675;DHT22;2860;54.284;10.158;2023-02-26T11:41:16;4.80;99.90
5675;DHT22;2860;54.284;10.158;2023-02-26T11:43:44;4.70;99.90
5675;DHT22;2860;54.284;10.158;2023-02-26T11:46:12;4.60;99.90
5675;DHT22;2860;54.284;10.158;2023-02-26T11:48:42;4.50;99.90
5675;DHT22;2860;54.284;10.158;2023-02-26T11:51:12;4.70;99.90
5675;DHT22;2860;54.284;10.158;2023-02-26T11:56:17;4.70;99.90
5675;DHT22;2860;54.284;10.158;2023-02-26T11:58:45;4.80;99.90
5675;DHT22;2860;54.284;10.158;2023-02-26T12:01:13;4.70;99.90
5675;DHT22;2860;54.284;10.158;2023-02-26T12:03:44;4.70;99.90
5675;DHT22;2860;54.284;10.158;2023-02-26T12:06:19;4.50;99.90
5675;DHT22;2860;54.284;10.158;2023-02-26T12:08:45;4.50;99.90
5675;DHT22;2860;54.284;10.158;2023-02-26T12:19:27;5.00;99.90
5675;DHT22;2860;54.284;10.158;2023-02-26T12:28:00;4.70;99.90
5675;DHT22;2860;54.284;10.158;2023-02-26T12:30:59;4.70;99.90
5675;DHT22;2860;54.284;10.158;2023-02-26T12:47:40;4.60;99.90
5675;DHT22;2860;54.284;10.158;2023-02-26T12:50:28;4.70;99.90
5675;DHT22;2860;54.284;10.158;2023-02-26T13:01:27;4.70;99.90
5675;DHT22;2860;54.284;10.158;2023-02-26T13:04:18;4.70;99.90
5675;DHT22;2860;54.284;10.158;2023-02-26T13:12:23;4.90;99.90
5675;DHT22;2860;54.284;10.158;2023-02-26T13:20:21;4.70;99.90
5675;DHT22;2860;54.284;10.158;2023-02-26T13:22:53;4.50;99.90
5675;DHT22;2860;54.284;10.158;2023-02-26T13:25:36;4.40;99.90
5675;DHT22;2860;54.284;10.158;2023-02-26T13:30:55;4.40;99.90
5675;DHT22;2860;54.284;10.158;2023-02-26T13:33:27;4.30;99.90
5675;DHT22;2860;54.284;10.158;2023-02-26T13:35:54;4.40;99.90
5675;DHT22;2860;54.284;10.158;2023-02-26T13:43:33;4.60;99.90
5675;DHT22;2860;54.284;10.158;2023-02-26T13:49:03;4.30;99.90
5675;DHT22;2860;54.284;10.158;2023-02-26T13:51:44;4.20;99.90
5675;DHT22;2860;54.284;10.158;2023-02-26T13:56:52;4.00;99.90
5675;DHT22;2860;54.284;10.158;2023-02-26T14:02:35;4.10;99.90
5675;DHT22;2860;54.284;10.158;2023-02-26T14:05:09;4.20;99.90
5675;DHT22;2860;54.284;10.158;2023-02-26T14:07:53;4.40;99.90
5675;DHT22;2860;54.284;10.158;2023-02-26T14:10:54;4.40;99.90
5675;DHT22;2860;54.284;10.158;2023-02-26T14:13:22;4.20;99.90
5675;DHT22;2860;54.284;10.158;2023-02-26T14:15:59;4.00;99.90
5675;DHT22;2860;54.284;10.158;2023-02-26T14:24:14;3.60;99.90
5675;DHT22;2860;54.284;10.158;2023-02-26T14:26:47;3.70;99.90
5675;DHT22;2860;54.284;10.158;2023-02-26T14:29:37;3.60;99.90
5675;DHT22;2860;54.284;10.158;2023-02-26T14:32:12;3.50;99.90
5675;DHT22;2860;54.284;10.158;2023-02-26T14:34:47;3.40;99.90
5675;DHT22;2860;54.284;10.158;2023-02-26T14:37:16;3.40;99.90
5675;DHT22;2860;54.284;10.158;2023-02-26T14:39:46;3.30;99.90
5675;DHT22;2860;54.284;10.158;2023-02-26T14:42:17;3.30;99.90
5675;DHT22;2860;54.284;10.158;2023-02-26T14:44:48;3.30;99.90
5675;DHT22;2860;54.284;10.158;2023-02-26T14:47:14;3.30;99.90
5675;DHT22;2860;54.284;10.158;2023-02-26T14:49:43;3.40;99.90
5675;DHT22;2860;54.284;10.158;2023-02-26T14:55:53;3.60;99.90
5675;DHT22;2860;54.284;10.158;2023-02-26T15:03:39;3.60;99.90
5675;DHT22;2860;54.284;10.158;2023-02-26T15:06:13;3.60;99.90
5675;DHT22;2860;54.284;10.158;2023-02-26T15:09:03;3.60;99.90
5675;DHT22;2860;54.284;10.158;2023-02-26T15:11:56;3.70;99.90
5675;DHT22;2860;54.284;10.158;2023-02-26T15:15:12;3.60;99.90
5675;DHT22;2860;54.284;10.158;2023-02-26T15:25:58;3.40;99.90
5675;DHT22;2860;54.284;10.158;2023-02-26T15:28:32;3.30;99.90
5675;DHT22;2860;54.284;10.158;2023-02-26T15:31:02;3.30;99.90
5675;DHT22;2860;54.284;10.158;2023-02-26T15:33:30;3.30;99.90
5675;DHT22;2860;54.284;10.158;2023-02-26T15:35:57;3.30;99.90
5675;DHT22;2860;54.284;10.158;2023-02-26T15:38:22;3.30;99.90
5675;DHT22;2860;54.284;10.158;2023-02-26T15:40:50;3.20;99.90
5675;DHT22;2860;54.284;10.158;2023-02-26T15:43:23;3.20;99.90
5675;DHT22;2860;54.284;10.158;2023-02-26T15:45:52;3.20;99.90
5675;DHT22;2860;54.284;10.158;2023-02-26T15:48:19;3.20;99.90
5675;DHT22;2860;54.284;10.158;2023-02-26T15:50:47;3.20;99.90
5675;DHT22;2860;54.284;10.158;2023-02-26T15:53:23;3.20;99.90
5675;DHT22;2860;54.284;10.158;2023-02-26T15:55:53;3.20;99.90
5675;DHT22;2860;54.284;10.158;2023-02-26T15:58:54;3.10;99.90
5675;DHT22;2860;54.284;10.158;2023-02-26T16:01:22;3.10;99.90
5675;DHT22;2860;54.284;10.158;2023-02-26T16:03:51;3.00;99.90
5675;DHT22;2860;54.284;10.158;2023-02-26T16:06:21;2.90;99.90
5675;DHT22;2860;54.284;10.158;2023-02-26T16:08:47;2.80;99.90
5675;DHT22;2860;54.284;10.158;2023-02-26T16:11:14;2.70;99.90
5675;DHT22;2860;54.284;10.158;2023-02-26T16:13:40;2.70;99.90
5675;DHT22;2860;54.284;10.158;2023-02-26T16:16:12;2.70;99.90
5675;DHT22;2860;54.284;10.158;2023-02-26T16:18:40;2.60;99.90
5675;DHT22;2860;54.284;10.158;2023-02-26T16:21:08;2.50;99.90
5675;DHT22;2860;54.284;10.158;2023-02-26T16:23:47;2.60;99.90
5675;DHT22;2860;54.284;10.158;2023-02-26T16:26:27;2.40;99.90
5675;DHT22;2860;54.284;10.158;2023-02-26T16:29:01;2.40;99.90
5675;DHT22;2860;54.284;10.158;2023-02-26T16:31:30;2.40;99.90
5675;DHT22;2860;54.284;10.158;2023-02-26T16:34:00;2.30;99.90
5675;DHT22;2860;54.284;10.158;2023-02-26T16:36:36;2.20;99.90
5675;DHT22;2860;54.284;10.158;2023-02-26T16:41:40;2.10;99.90
5675;DHT22;2860;54.284;10.158;2023-02-26T16:46:56;2.00;99.90
5675;DHT22;2860;54.284;10.158;2023-02-26T16:49:30;1.90;99.90
5675;DHT22;2860;54.284;10.158;2023-02-26T16:51:57;1.80;99.90
5675;DHT22;2860;54.284;10.158;2023-02-26T16:54:26;1.70;99.90
5675;DHT22;2860;54.284;10.158;2023-02-26T16:57:05;1.60;99.90
5675;DHT22;2860;54.284;10.158;2023-02-26T16:59:34;1.50;99.90
5675;DHT22;2860;54.284;10.158;2023-02-26T17:02:18;1.50;99.90
5675;DHT22;2860;54.284;10.158;2023-02-26T17:04:48;1.40;99.90
5675;DHT22;2860;54.284;10.158;2023-02-26T17:07:30;1.40;99.90
5675;DHT22;2860;54.284;10.158;2023-02-26T17:10:07;1.40;99.90
5675;DHT22;2860;54.284;10.158;2023-02-26T17:12:51;1.40;99.90
5675;DHT22;2860;54.284;10.158;2023-02-26T17:15:26;1.30;99.90
5675;DHT22;2860;54.284;10.158;2023-02-26T17:17:52;1.20;99.90
5675;DHT22;2860;54.284;10.158;2023-02-26T17:20:22;1.10;99.90
5675;DHT22;2860;54.284;10.158;2023-02-26T17:22:48;1.00;99.90
5675;DHT22;2860;54.284;10.158;2023-02-26T17:25:15;0.90;99.90
5675;DHT22;2860;54.284;10.158;2023-02-26T17:27:41;0.80;99.90
5675;DHT22;2860;54.284;10.158;2023-02-26T17:30:08;0.80;99.90
5675;DHT22;2860;54.284;10.158;2023-02-26T17:32:36;0.70;99.90
5675;DHT22;2860;54.284;10.158;2023-02-26T17:35:01;0.60;99.90
5675;DHT22;2860;54.284;10.158;2023-02-26T17:37:32;0.40;99.90
5675;DHT22;2860;54.284;10.158;2023-02-26T17:39:58;0.40;99.90
5675;DHT22;2860;54.284;10.158;2023-02-26T17:42:24;0.30;99.90
5675;DHT22;2860;54.284;10.158;2023-02-26T17:44:50;0.20;99.90
5675;DHT22;2860;54.284;10.158;2023-02-26T17:47:21;0.10;99.90
5675;DHT22;2860;54.284;10.158;2023-02-26T17:49:47;0.10;99.90
5675;DHT22;2860;54.284;10.158;2023-02-26T17:52:14;0.00;99.90
5675;DHT22;2860;54.284;10.158;2023-02-26T17:54:40;-0.10;99.90
5675;DHT22;2860;54.284;10.158;2023-02-26T17:57:06;-0.20;99.90
5675;DHT22;2860;54.284;10.158;2023-02-26T17:59:32;-0.30;99.90
5675;DHT22;2860;54.284;10.158;2023-02-26T18:01:58;-0.30;99.90
5675;DHT22;2860;54.284;10.158;2023-02-26T18:04:24;-0.40;99.90
5675;DHT22;2860;54.284;10.158;2023-02-26T18:06:49;-0.40;99.90
5675;DHT22;2860;54.284;10.158;2023-02-26T18:09:15;-0.50;99.90
5675;DHT22;2860;54.284;10.158;2023-02-26T18:11:41;-0.50;99.90
5675;DHT22;2860;54.284;10.158;2023-02-26T18:14:08;-0.60;99.90
5675;DHT22;2860;54.284;10.158;2023-02-26T18:16:38;-0.60;99.90
5675;DHT22;2860;54.284;10.158;2023-02-26T18:19:04;-0.70;99.90
5675;DHT22;2860;54.284;10.158;2023-02-26T18:21:30;-0.70;99.90
5675;DHT22;2860;54.284;10.158;2023-02-26T18:23:56;-0.70;99.90
5675;DHT22;2860;54.284;10.158;2023-02-26T18:26:23;-0.80;99.90
5675;DHT22;2860;54.284;10.158;2023-02-26T18:28:51;-0.80;99.90
5675;DHT22;2860;54.284;10.158;2023-02-26T18:31:17;-0.80;99.90
5675;DHT22;2860;54.284;10.158;2023-02-26T18:33:43;-0.90;99.90
5675;DHT22;2860;54.284;10.158;2023-02-26T18:36:18;-0.90;99.90
5675;DHT22;2860;54.284;10.158;2023-02-26T18:38:45;-0.90;99.90
5675;DHT22;2860;54.284;10.158;2023-02-26T18:41:10;-1.00;99.90
5675;DHT22;2860;54.284;10.158;2023-02-26T18:43:36;-1.00;99.90